Time;durP1;ratioP1;P1;durP2;ratioP2;P2;SDS_P1;SDS_P2;PMS_P1;PMS_P2;Temp;Humidity;BMP_temperature;BMP_pressure;BME280_temperature;BME280_humidity;BME280_pressure;Samples;Min_cycle;Max_cycle;Signal;HPM_P1;HPM_P2
2022/06/22 00:02:13;;;;;;;;;;;;;;;;;;5111222;27;1963;-76
2022/06/22 00:04:43;;;;;;;;;;;;;;;;;;5128579;27;1174;-76
2022/06/22 00:07:28;;;;;;;;;;;;;;;;;;5145084;27;1159;-75
2022/06/22 00:09:55;;;;;;;;;;;;;;;;;;5149099;27;1162;-75
2022/06/22 00:12:28;;;;;;;;;;;;;;;;;;5149625;27;1142;-75
2022/06/22 00:14:56;;;;;;;;;;;;;;;;;;5129609;27;1510;-77
2022/06/22 00:17:21;;;;;;;;;;;;;;;;;;5148576;27;1151;-77
2022/06/22 00:19:47;;;;;;;;;;;;;;;;;;5148467;27;1376;-76
2022/06/22 00:22:35;;;;;;;;;;;;;;;;;;5128808;27;1951;-76
2022/06/22 00:25:21;;;;;;;;;;;;;;;;;;5119128;27;1369;-77
2022/06/22 00:27:46;;;;;;;;;;;;;;;;;;5126515;27;1077;-77
2022/06/22 00:30:15;;;;;;;;;;;;;;;;;;5110464;27;1186;-77
2022/06/22 00:32:52;;;;;;;;;;;;;;;;;;5125921;27;1186;-77
2022/06/22 00:38:32;;;;;;;;;;;;;;;;;;5118180;27;1345;-76
2022/06/22 00:41:00;;;;;;;;;;;;;;;;;;5109755;27;1048;-77
2022/06/22 00:43:28;;;;;;;;;;;;;;;;;;5109872;27;1893;-76
2022/06/22 00:45:55;;;;;;;;;;;;;;;;;;5109812;27;1333;-76
2022/06/22 00:48:22;;;;;;;;;;;;;;;;;;5109848;27;1210;-75
2022/06/22 00:50:53;;;;;;;;;;;;;;;;;;5125560;27;1336;-76
2022/06/22 00:53:22;;;;;;;;;;;;;;;;;;5146500;27;1158;-75
2022/06/22 00:55:49;;;;;;;;;;;;;;;;;;5129673;27;1218;-75
2022/06/22 00:58:34;;;;;;;;;;;;;;;;;;5148026;27;1186;-77
2022/06/22 01:01:00;;;;;;;;;;;;;;;;;;5102234;27;1330;-75
2022/06/22 01:03:51;;;;;;;;;;;;;;;;;;5145769;27;1910;-77
2022/06/22 01:06:19;;;;;;;;;;;;;;;;;;5128551;27;1182;-75
2022/06/22 01:08:48;;;;;;;;;;;;;;;;;;5143796;27;1138;-75
2022/06/22 01:14:12;;;;;;;;;;;;;;;;;;5148623;27;1019;-75
2022/06/22 01:16:39;;;;;;;;;;;;;;;;;;5128425;27;1130;-77
2022/06/22 01:19:20;;;;;;;;;;;;;;;;;;5148671;27;1364;-76
2022/06/22 01:21:51;;;;;;;;;;;;;;;;;;5144072;27;1878;-77
2022/06/22 01:24:34;;;;;;;;;;;;;;;;;;5144193;27;1238;-75
2022/06/22 01:27:09;;;;;;;;;;;;;;;;;;5124799;27;1446;-76
2022/06/22 01:29:34;;;;;;;;;;;;;;;;;;5125926;27;1119;-76
2022/06/22 01:32:01;;;;;;;;;;;;;;;;;;5091752;27;1164;-75
2022/06/22 01:34:39;;;;;;;;;;;;;;;;;;5109781;27;1186;-77
2022/06/22 01:37:06;;;;;;;;;;;;;;;;;;5138614;27;1136;-77
2022/06/22 01:39:32;;;;;;;;;;;;;;;;;;5124285;27;1309;-75
2022/06/22 01:42:01;;;;;;;;;;;;;;;;;;5127572;27;1952;-75
2022/06/22 01:44:50;;;;;;;;;;;;;;;;;;5147997;27;1151;-76
2022/06/22 01:47:28;;;;;;;;;;;;;;;;;;5126430;27;1289;-75
2022/06/22 01:50:19;;;;;;;;;;;;;;;;;;5145250;27;1376;-75
2022/06/22 01:53:01;;;;;;;;;;;;;;;;;;5070750;27;1192;-75
2022/06/22 01:55:39;;;;;;;;;;;;;;;;;;5126979;27;1202;-75
2022/06/22 01:58:11;;;;;;;;;;;;;;;;;;5128318;27;1214;-74
2022/06/22 02:00:37;;;;;;;;;;;;;;;;;;5108311;27;1293;-75
2022/06/22 02:03:06;;;;;;;;;;;;;;;;;;5109951;27;1918;-76
2022/06/22 02:05:41;;;;;;;;;;;;;;;;;;5110141;27;1289;-76
2022/06/22 02:08:13;;;;;;;;;;;;;;;;;;5107255;27;1271;-76
2022/06/22 02:10:39;;;;;;;;;;;;;;;;;;5106430;27;1221;-76
2022/06/22 02:13:31;;;;;;;;;;;;;;;;;;5108821;27;1320;-75
2022/06/22 02:15:59;;;;;;;;;;;;;;;;;;5126853;27;1139;-75
2022/06/22 02:18:27;;;;;;;;;;;;;;;;;;5125463;27;1205;-75
2022/06/22 02:20:53;;;;;;;;;;;;;;;;;;5105825;27;1222;-76
2022/06/22 02:23:24;;;;;;;;;;;;;;;;;;5105967;27;1898;-77
2022/06/22 02:25:53;;;;;;;;;;;;;;;;;;5105819;27;1225;-75
2022/06/22 02:28:18;;;;;;;;;;;;;;;;;;5108538;27;1202;-76
2022/06/22 02:30:43;;;;;;;;;;;;;;;;;;5087899;27;1327;-75
2022/06/22 02:33:09;;;;;;;;;;;;;;;;;;5109170;27;1368;-75
2022/06/22 02:35:40;;;;;;;;;;;;;;;;;;5126197;27;1198;-75
2022/06/22 02:38:07;;;;;;;;;;;;;;;;;;5107685;27;1432;-75
2022/06/22 02:44:29;;;;;;;;;;;;;;;;;;5112989;27;1206;-76
2022/06/22 02:46:09;;;;;;;;;;;;;;;;;;5151221;27;1031;-76
2022/06/22 02:48:37;;;;;;;;;;;;;;;;;;5148218;27;1119;-75
2022/06/22 02:51:13;;;;;;;;;;;;;;;;;;5099545;27;1298;-76
2022/06/22 02:53:40;;;;;;;;;;;;;;;;;;5150442;27;1131;-76
2022/06/22 02:56:26;;;;;;;;;;;;;;;;;;5126523;27;1238;-75
2022/06/22 02:58:52;;;;;;;;;;;;;;;;;;5110074;27;1275;-76
2022/06/22 03:01:20;;;;;;;;;;;;;;;;;;5112624;27;1194;-76
2022/06/22 03:03:48;;;;;;;;;;;;;;;;;;5130192;27;1906;-76
2022/06/22 03:06:14;;;;;;;;;;;;;;;;;;5112229;27;1386;-76
2022/06/22 03:08:43;;;;;;;;;;;;;;;;;;5129847;27;1218;-76
2022/06/22 03:11:11;;;;;;;;;;;;;;;;;;5111126;27;1171;-76
2022/06/22 03:13:54;;;;;;;;;;;;;;;;;;5112856;27;1219;-76
2022/06/22 03:16:26;;;;;;;;;;;;;;;;;;5112377;27;1237;-76
2022/06/22 03:18:53;;;;;;;;;;;;;;;;;;5129003;27;1218;-76
2022/06/22 03:21:18;;;;;;;;;;;;;;;;;;5131612;27;1419;-76
2022/06/22 03:24:12;;;;;;;;;;;;;;;;;;5128906;27;1889;-76
2022/06/22 03:26:43;;;;;;;;;;;;;;;;;;5131197;27;1170;-77
2022/06/22 03:29:22;;;;;;;;;;;;;;;;;;5130491;27;1528;-76
2022/06/22 03:31:51;;;;;;;;;;;;;;;;;;5148438;27;1166;-76
2022/06/22 03:34:23;;;;;;;;;;;;;;;;;;5131308;27;1455;-76
2022/06/22 03:37:15;;;;;;;;;;;;;;;;;;5128605;27;1212;-76
2022/06/22 03:39:43;;;;;;;;;;;;;;;;;;5141115;27;1246;-76
2022/06/22 03:42:13;;;;;;;;;;;;;;;;;;5126974;27;1897;-75
2022/06/22 03:44:42;;;;;;;;;;;;;;;;;;5128287;27;1202;-75
2022/06/22 03:47:11;;;;;;;;;;;;;;;;;;5109546;27;1096;-75
2022/06/22 03:49:39;;;;;;;;;;;;;;;;;;5129746;27;1111;-76
2022/06/22 03:52:26;;;;;;;;;;;;;;;;;;5108245;27;1280;-76
2022/06/22 03:54:51;;;;;;;;;;;;;;;;;;5112328;27;1238;-76
2022/06/22 03:57:18;;;;;;;;;;;;;;;;;;5148554;27;1139;-76
2022/06/22 03:59:45;;;;;;;;;;;;;;;;;;5128885;27;1334;-76
2022/06/22 04:02:11;;;;;;;;;;;;;;;;;;5130758;27;1917;-76
2022/06/22 04:04:36;;;;;;;;;;;;;;;;;;5149708;27;1173;-75
2022/06/22 04:07:02;;;;;;;;;;;;;;;;;;5100237;27;1162;-76
2022/06/22 04:09:28;;;;;;;;;;;;;;;;;;5125935;27;1068;-75
2022/06/22 04:12:00;;;;;;;;;;;;;;;;;;5117927;27;1257;-76
2022/06/22 04:14:28;;;;;;;;;;;;;;;;;;5131154;27;1237;-76
2022/06/22 04:17:01;;;;;;;;;;;;;;;;;;5149103;27;1126;-75
2022/06/22 04:19:36;;;;;;;;;;;;;;;;;;5150163;27;1205;-75
2022/06/22 04:22:07;;;;;;;;;;;;;;;;;;5129755;27;1882;-76
2022/06/22 04:24:46;;;;;;;;;;;;;;;;;;5128185;27;1269;-75
2022/06/22 04:27:24;;;;;;;;;;;;;;;;;;5131711;27;1084;-76
2022/06/22 04:30:05;;;;;;;;;;;;;;;;;;5149497;27;1134;-76
2022/06/22 04:32:36;;;;;;;;;;;;;;;;;;5149708;27;1182;-76
2022/06/22 04:35:20;;;;;;;;;;;;;;;;;;5130419;27;1368;-76
2022/06/22 04:37:52;;;;;;;;;;;;;;;;;;5145646;27;1146;-76
2022/06/22 04:40:21;;;;;;;;;;;;;;;;;;5127317;27;1166;-76
2022/06/22 04:42:49;;;;;;;;;;;;;;;;;;5113648;27;1890;-76
2022/06/22 04:45:28;;;;;;;;;;;;;;;;;;5129152;27;1344;-76
2022/06/22 04:48:00;;;;;;;;;;;;;;;;;;5128968;27;1237;-75
2022/06/22 04:50:26;;;;;;;;;;;;;;;;;;5128579;27;1201;-75
2022/06/22 04:52:53;;;;;;;;;;;;;;;;;;5126764;27;1197;-75
2022/06/22 04:55:20;;;;;;;;;;;;;;;;;;5112641;27;1352;-75
2022/06/22 04:57:48;;;;;;;;;;;;;;;;;;5131094;27;1186;-76
2022/06/22 05:00:18;;;;;;;;;;;;;;;;;;5128647;27;1115;-76
2022/06/22 05:02:44;;;;;;;;;;;;;;;;;;5129302;27;1967;-76
2022/06/22 05:05:24;;;;;;;;;;;;;;;;;;5146745;27;1142;-75
2022/06/22 05:07:54;;;;;;;;;;;;;;;;;;5125828;27;1273;-74
2022/06/22 05:10:31;;;;;;;;;;;;;;;;;;5129042;27;1154;-74
2022/06/22 05:12:58;;;;;;;;;;;;;;;;;;5110506;27;1159;-75
2022/06/22 05:15:27;;;;;;;;;;;;;;;;;;5109172;27;1165;-75
2022/06/22 05:17:53;;;;;;;;;;;;;;;;;;5126596;27;1135;-76
2022/06/22 05:20:22;;;;;;;;;;;;;;;;;;5110932;27;1297;-76
2022/06/22 05:22:52;;;;;;;;;;;;;;;;;;5125761;27;1966;-76
2022/06/22 05:25:17;;;;;;;;;;;;;;;;;;5145167;27;1086;-76
2022/06/22 05:27:50;;;;;;;;;;;;;;;;;;5109159;27;1221;-76
2022/06/22 05:30:16;;;;;;;;;;;;;;;;;;5129534;27;1326;-76
2022/06/22 05:32:57;;;;;;;;;;;;;;;;;;5148793;27;1146;-76
2022/06/22 05:35:28;;;;;;;;;;;;;;;;;;5130490;27;1323;-75
2022/06/22 05:37:54;;;;;;;;;;;;;;;;;;5144996;27;1090;-76
2022/06/22 05:40:21;;;;;;;;;;;;;;;;;;5128158;27;1233;-76
2022/06/22 05:42:46;;;;;;;;;;;;;;;;;;5127259;27;1886;-76
2022/06/22 05:45:16;;;;;;;;;;;;;;;;;;5107711;27;1191;-75
2022/06/22 05:47:43;;;;;;;;;;;;;;;;;;5127474;27;1210;-76
2022/06/22 05:50:11;;;;;;;;;;;;;;;;;;5125789;27;1181;-75
2022/06/22 05:52:44;;;;;;;;;;;;;;;;;;5124877;27;1127;-76
2022/06/22 05:55:21;;;;;;;;;;;;;;;;;;5123732;27;1142;-76
2022/06/22 05:57:56;;;;;;;;;;;;;;;;;;5121498;27;1151;-76
2022/06/22 06:00:24;;;;;;;;;;;;;;;;;;5123266;27;1196;-76
2022/06/22 06:03:03;;;;;;;;;;;;;;;;;;5125148;27;1905;-76
2022/06/22 06:05:34;;;;;;;;;;;;;;;;;;5124654;27;1184;-76
2022/06/22 06:08:02;;;;;;;;;;;;;;;;;;5119018;27;1321;-76
2022/06/22 06:10:32;;;;;;;;;;;;;;;;;;5122520;27;1166;-76
2022/06/22 06:13:04;;;;;;;;;;;;;;;;;;5122358;27;1269;-76
2022/06/22 06:15:31;;;;;;;;;;;;;;;;;;5119228;27;1123;-76
2022/06/22 06:17:58;;;;;;;;;;;;;;;;;;5121466;27;1342;-76
2022/06/22 06:20:28;;;;;;;;;;;;;;;;;;5122349;27;1232;-76
2022/06/22 06:22:57;;;;;;;;;;;;;;;;;;5119270;27;1890;-76
2022/06/22 06:28:13;;;;;;;;;;;;;;;;;;5123613;28;1123;-77
2022/06/22 06:30:41;;;;;;;;;;;;;;;;;;5123148;28;1220;-77
2022/06/22 06:33:39;;;;;;;;;;;;;;;;;;5122284;28;1307;-76
2022/06/22 06:36:21;;;;;;;;;;;;;;;;;;5073049;28;1435;-74
2022/06/22 06:38:54;;;;;;;;;;;;;;;;;;5104173;28;822;-73
2022/06/22 06:41:31;;;;;;;;;;;;;;;;;;5100762;28;1222;-73
2022/06/22 06:44:04;;;;;;;;;;;;;;;;;;5122777;27;1949;-76
2022/06/22 06:46:36;;;;;;;;;;;;;;;;;;5108127;27;1195;-76
2022/06/22 06:49:05;;;;;;;;;;;;;;;;;;5106192;27;1140;-75
2022/06/22 06:51:31;;;;;;;;;;;;;;;;;;5123184;27;1191;-76
2022/06/22 06:54:06;;;;;;;;;;;;;;;;;;5105077;27;1198;-76
2022/06/22 06:56:50;;;;;;;;;;;;;;;;;;5105438;27;1195;-76
2022/06/22 06:59:17;;;;;;;;;;;;;;;;;;5105272;27;1218;-75
2022/06/22 07:01:45;;;;;;;;;;;;;;;;;;5107505;27;1947;-75
2022/06/22 07:04:17;;;;;;;;;;;;;;;;;;5104397;27;1178;-75
2022/06/22 07:06:43;;;;;;;;;;;;;;;;;;5122305;27;1381;-76
2022/06/22 07:09:23;;;;;;;;;;;;;;;;;;5102682;27;1293;-75
2022/06/22 07:11:51;;;;;;;;;;;;;;;;;;5103680;27;1237;-75
2022/06/22 07:14:24;;;;;;;;;;;;;;;;;;5103983;27;1340;-76
2022/06/22 07:16:51;;;;;;;;;;;;;;;;;;5106979;27;1423;-77
2022/06/22 07:19:21;;;;;;;;;;;;;;;;;;5121079;27;1225;-77
2022/06/22 07:21:46;;;;;;;;;;;;;;;;;;5145729;27;1901;-77
2022/06/22 07:24:35;;;;;;;;;;;;;;;;;;5126989;27;1159;-77
2022/06/22 07:27:03;;;;;;;;;;;;;;;;;;5114502;27;1263;-77
2022/06/22 07:29:28;;;;;;;;;;;;;;;;;;5131915;27;1380;-77
2022/06/22 07:32:23;;;;;;;;;;;;;;;;;;5150033;27;1210;-75
2022/06/22 07:35:03;;;;;;;;;;;;;;;;;;5057429;27;1624;-76
2022/06/22 07:37:34;;;;;;;;;;;;;;;;;;5111287;27;1250;-75
2022/06/22 07:40:05;;;;;;;;;;;;;;;;;;5111108;27;1257;-75
2022/06/22 07:42:30;;;;;;;;;;;;;;;;;;5125368;27;1894;-75
2022/06/22 07:44:56;;;;;;;;;;;;;;;;;;5110767;27;1282;-75
2022/06/22 07:47:36;;;;;;;;;;;;;;;;;;5107054;27;1084;-76
2022/06/22 07:50:17;;;;;;;;;;;;;;;;;;5110208;27;1294;-75
2022/06/22 07:52:47;;;;;;;;;;;;;;;;;;5105298;27;1293;-76
2022/06/22 07:55:18;;;;;;;;;;;;;;;;;;5127939;27;1166;-75
2022/06/22 07:57:55;;;;;;;;;;;;;;;;;;5107246;27;1297;-75
2022/06/22 08:00:24;;;;;;;;;;;;;;;;;;5106477;27;1194;-75
2022/06/22 08:02:49;;;;;;;;;;;;;;;;;;5124878;27;1913;-76
2022/06/22 08:05:18;;;;;;;;;;;;;;;;;;5127476;27;1219;-76
2022/06/22 08:07:52;;;;;;;;;;;;;;;;;;5113842;27;1159;-76
2022/06/22 08:10:21;;;;;;;;;;;;;;;;;;5118204;27;1130;-77
2022/06/22 08:12:55;;;;;;;;;;;;;;;;;;5106760;27;1210;-76
2022/06/22 08:15:22;;;;;;;;;;;;;;;;;;5108653;27;1100;-76
2022/06/22 08:17:50;;;;;;;;;;;;;;;;;;5125795;27;1210;-76
2022/06/22 08:20:27;;;;;;;;;;;;;;;;;;5106154;27;1274;-77
2022/06/22 08:22:53;;;;;;;;;;;;;;;;;;5145030;27;1960;-76
2022/06/22 08:25:20;;;;;;;;;;;;;;;;;;5128580;27;790;-76
2022/06/22 08:27:45;;;;;;;;;;;;;;;;;;5147018;27;947;-76
2022/06/22 08:30:15;;;;;;;;;;;;;;;;;;5111349;27;1151;-76
2022/06/22 08:32:45;;;;;;;;;;;;;;;;;;5130091;27;1177;-76
2022/06/22 08:35:19;;;;;;;;;;;;;;;;;;5146398;27;888;-76
2022/06/22 08:37:47;;;;;;;;;;;;;;;;;;5124917;27;1147;-75
2022/06/22 08:40:13;;;;;;;;;;;;;;;;;;5147523;27;1041;-75
2022/06/22 08:42:51;;;;;;;;;;;;;;;;;;5129771;27;1915;-76
2022/06/22 08:45:22;;;;;;;;;;;;;;;;;;5147483;27;751;-76
2022/06/22 08:48:08;;;;;;;;;;;;;;;;;;5131465;27;1262;-76
2022/06/22 08:50:40;;;;;;;;;;;;;;;;;;5129898;27;1182;-76
2022/06/22 08:53:18;;;;;;;;;;;;;;;;;;5128129;27;1263;-76
2022/06/22 08:55:52;;;;;;;;;;;;;;;;;;5089037;28;1174;-77
2022/06/22 08:58:47;;;;;;;;;;;;;;;;;;5084485;28;1176;-77
2022/06/22 09:01:22;;;;;;;;;;;;;;;;;;5088313;28;1090;-77
2022/06/22 09:04:06;;;;;;;;;;;;;;;;;;5107816;28;1975;-76
2022/06/22 09:06:38;;;;;;;;;;;;;;;;;;5085839;28;1084;-78
2022/06/22 09:09:18;;;;;;;;;;;;;;;;;;5088010;28;1195;-76
2022/06/22 09:12:02;;;;;;;;;;;;;;;;;;5085633;28;1282;-77
2022/06/22 09:14:42;;;;;;;;;;;;;;;;;;5105309;28;866;-77
2022/06/22 09:17:34;;;;;;;;;;;;;;;;;;5088324;28;1154;-76
2022/06/22 09:20:29;;;;;;;;;;;;;;;;;;5107451;28;881;-77
2022/06/22 09:22:59;;;;;;;;;;;;;;;;;;5101093;28;1941;-77
2022/06/22 09:25:43;;;;;;;;;;;;;;;;;;5105830;27;1223;-77
2022/06/22 09:28:16;;;;;;;;;;;;;;;;;;5144812;27;1189;-77
2022/06/22 09:30:41;;;;;;;;;;;;;;;;;;5127787;27;1445;-76
2022/06/22 09:33:16;;;;;;;;;;;;;;;;;;5120491;27;1296;-76
2022/06/22 09:36:00;;;;;;;;;;;;;;;;;;5107227;27;1325;-76
2022/06/22 09:38:44;;;;;;;;;;;;;;;;;;5106050;27;1179;-75
2022/06/22 09:41:24;;;;;;;;;;;;;;;;;;5127413;27;1186;-75
2022/06/22 09:44:09;;;;;;;;;;;;;;;;;;5125266;27;1910;-73
2022/06/22 09:46:53;;;;;;;;;;;;;;;;;;5125097;27;1229;-73
2022/06/22 09:49:27;;;;;;;;;;;;;;;;;;5125243;27;1210;-75
2022/06/22 09:52:02;;;;;;;;;;;;;;;;;;5139646;27;1443;-76
2022/06/22 09:57:40;;;;;;;;;;;;;;;;;;5120430;27;1016;-76
2022/06/22 10:00:29;;;;;;;;;;;;;;;;;;5132904;27;1114;-75
2022/06/22 10:03:19;;;;;;;;;;;;;;;;;;5079439;27;1913;-76
2022/06/22 10:06:04;;;;;;;;;;;;;;;;;;5124499;27;1297;-76
2022/06/22 10:08:42;;;;;;;;;;;;;;;;;;5143810;27;1094;-76
2022/06/22 10:11:26;;;;;;;;;;;;;;;;;;5127259;27;1124;-75
2022/06/22 10:14:09;;;;;;;;;;;;;;;;;;5143266;27;1198;-76
2022/06/22 10:17:01;;;;;;;;;;;;;;;;;;5142976;27;1174;-75
2022/06/22 10:19:34;;;;;;;;;;;;;;;;;;5140107;27;1133;-76
2022/06/22 10:22:19;;;;;;;;;;;;;;;;;;5145221;27;1931;-76
2022/06/22 10:24:53;;;;;;;;;;;;;;;;;;5106588;27;1206;-75
2022/06/22 10:27:22;;;;;;;;;;;;;;;;;;5123246;27;1159;-75
2022/06/22 10:30:06;;;;;;;;;;;;;;;;;;5107637;27;1480;-75
2022/06/22 10:32:40;;;;;;;;;;;;;;;;;;5084892;28;1195;-75
2022/06/22 10:35:20;;;;;;;;;;;;;;;;;;5108911;28;1171;-77
2022/06/22 10:37:54;;;;;;;;;;;;;;;;;;5106748;28;1163;-77
2022/06/22 10:46:01;;;;;;;;;;;;;;;;;;5126440;27;1330;-76
2022/06/22 10:48:38;;;;;;;;;;;;;;;;;;5106747;27;1246;-77
2022/06/22 10:51:22;;;;;;;;;;;;;;;;;;5107963;28;1245;-76
2022/06/22 10:54:10;;;;;;;;;;;;;;;;;;5125988;27;1124;-78
2022/06/22 10:56:35;;;;;;;;;;;;;;;;;;5105999;27;1230;-78
2022/06/22 10:59:10;;;;;;;;;;;;;;;;;;5109880;27;1486;-76
2022/06/22 11:01:41;;;;;;;;;;;;;;;;;;5109363;27;1302;-77
2022/06/22 11:04:34;;;;;;;;;;;;;;;;;;5111833;27;1971;-78
2022/06/22 11:07:14;;;;;;;;;;;;;;;;;;5109066;27;1273;-78
2022/06/22 11:09:48;;;;;;;;;;;;;;;;;;5108688;27;1210;-78
2022/06/22 11:12:23;;;;;;;;;;;;;;;;;;5125967;27;1127;-77
2022/06/22 11:14:48;;;;;;;;;;;;;;;;;;5125367;27;1174;-78
2022/06/22 11:17:32;;;;;;;;;;;;;;;;;;5127579;27;1195;-76
2022/06/22 11:20:00;;;;;;;;;;;;;;;;;;5110730;27;1258;-78
2022/06/22 11:22:29;;;;;;;;;;;;;;;;;;5105404;27;1894;-77
2022/06/22 11:31:38;;;;;;;;;;;;;;;;;;5129419;27;1062;-76
2022/06/22 11:34:22;;;;;;;;;;;;;;;;;;5122193;27;1237;-78
2022/06/22 11:37:08;;;;;;;;;;;;;;;;;;5108776;27;1314;-77
2022/06/22 11:39:43;;;;;;;;;;;;;;;;;;5126271;27;1158;-76
2022/06/22 11:42:18;;;;;;;;;;;;;;;;;;5109780;27;1885;-76
2022/06/22 11:45:49;;;;;;;;;;;;;;;;;;5109144;27;1135;-77
2022/06/22 11:47:40;;;;;;;;;;;;;;;;;;5127131;27;1039;-76
2022/06/22 11:50:18;;;;;;;;;;;;;;;;;;5128894;27;1221;-77
2022/06/22 11:52:44;;;;;;;;;;;;;;;;;;5134114;27;1176;-77
2022/06/22 11:55:12;;;;;;;;;;;;;;;;;;5132084;27;1083;-76
2022/06/22 11:58:10;;;;;;;;;;;;;;;;;;5127656;27;1305;-76
2022/06/22 12:00:41;;;;;;;;;;;;;;;;;;5036909;27;1159;-77
2022/06/22 12:03:18;;;;;;;;;;;;;;;;;;5117311;27;1914;-78
2022/06/22 12:05:59;;;;;;;;;;;;;;;;;;5117736;27;1336;-75
2022/06/22 12:09:03;;;;;;;;;;;;;;;;;;5109914;27;1127;-76
2022/06/22 12:11:40;;;;;;;;;;;;;;;;;;5027401;28;1288;-75
2022/06/22 12:17:09;;;;;;;;;;;;;;;;;;5110261;27;1185;-77
2022/06/22 12:19:35;;;;;;;;;;;;;;;;;;5125028;27;1151;-76
2022/06/22 12:22:00;;;;;;;;;;;;;;;;;;5136261;27;1902;-77
2022/06/22 12:24:28;;;;;;;;;;;;;;;;;;5107233;27;1257;-78
2022/06/22 12:27:09;;;;;;;;;;;;;;;;;;5124557;27;1301;-77
2022/06/22 12:29:51;;;;;;;;;;;;;;;;;;5126537;27;1118;-78
2022/06/22 12:32:35;;;;;;;;;;;;;;;;;;5129937;27;1190;-77
2022/06/22 12:35:05;;;;;;;;;;;;;;;;;;5130232;27;1288;-77
2022/06/22 12:37:35;;;;;;;;;;;;;;;;;;5141394;27;1143;-78
2022/06/22 12:40:03;;;;;;;;;;;;;;;;;;5147063;27;1170;-76
2022/06/22 12:42:38;;;;;;;;;;;;;;;;;;5126952;27;1894;-77
2022/06/22 12:45:19;;;;;;;;;;;;;;;;;;5127745;27;1316;-76
2022/06/22 12:47:47;;;;;;;;;;;;;;;;;;5126343;27;1202;-76
2022/06/22 12:50:45;;;;;;;;;;;;;;;;;;5121481;27;1347;-78
2022/06/22 12:53:16;;;;;;;;;;;;;;;;;;5060422;27;1338;-77
2022/06/22 12:55:47;;;;;;;;;;;;;;;;;;5125605;27;1087;-77
2022/06/22 12:58:23;;;;;;;;;;;;;;;;;;5107353;27;1254;-76
2022/06/22 13:00:49;;;;;;;;;;;;;;;;;;5106316;27;1194;-76
2022/06/22 13:03:16;;;;;;;;;;;;;;;;;;5127027;27;1913;-77
2022/06/22 13:05:42;;;;;;;;;;;;;;;;;;5106194;27;1404;-76
2022/06/22 13:08:10;;;;;;;;;;;;;;;;;;5107975;27;1232;-78
2022/06/22 13:10:39;;;;;;;;;;;;;;;;;;5135828;27;1353;-78
2022/06/22 13:13:10;;;;;;;;;;;;;;;;;;5146404;27;1340;-77
2022/06/22 13:15:35;;;;;;;;;;;;;;;;;;5128355;27;1315;-78
2022/06/22 13:18:16;;;;;;;;;;;;;;;;;;5128977;27;1376;-78
2022/06/22 13:20:47;;;;;;;;;;;;;;;;;;5109102;27;1299;-77
2022/06/22 13:23:31;;;;;;;;;;;;;;;;;;5129085;27;1948;-77
2022/06/22 13:26:06;;;;;;;;;;;;;;;;;;5128042;27;1399;-77
2022/06/22 13:28:51;;;;;;;;;;;;;;;;;;5126104;27;1193;-78
2022/06/22 13:31:22;;;;;;;;;;;;;;;;;;5148677;27;1149;-77
2022/06/22 13:33:56;;;;;;;;;;;;;;;;;;5146705;27;1170;-78
2022/06/22 13:36:47;;;;;;;;;;;;;;;;;;5128217;27;1253;-77
2022/06/22 13:39:35;;;;;;;;;;;;;;;;;;5127245;27;1478;-76
2022/06/22 13:42:10;;;;;;;;;;;;;;;;;;5127275;27;1898;-77
2022/06/22 13:44:40;;;;;;;;;;;;;;;;;;5126633;27;1233;-78
2022/06/22 13:47:18;;;;;;;;;;;;;;;;;;5146672;27;1091;-77
2022/06/22 13:50:20;;;;;;;;;;;;;;;;;;5127255;27;1178;-76
2022/06/22 13:52:50;;;;;;;;;;;;;;;;;;5123510;27;1288;-76
2022/06/22 13:55:18;;;;;;;;;;;;;;;;;;5122776;27;1115;-76
2022/06/22 13:57:49;;;;;;;;;;;;;;;;;;5105217;27;1194;-76
2022/06/22 14:00:22;;;;;;;;;;;;;;;;;;5121072;27;1233;-76
2022/06/22 14:02:58;;;;;;;;;;;;;;;;;;5115751;27;1948;-76
2022/06/22 14:05:30;;;;;;;;;;;;;;;;;;5125944;27;1241;-76
2022/06/22 14:07:55;;;;;;;;;;;;;;;;;;5122240;27;1143;-75
2022/06/22 14:10:33;;;;;;;;;;;;;;;;;;5110600;27;1327;-75
2022/06/22 14:13:16;;;;;;;;;;;;;;;;;;5126151;27;1260;-75
2022/06/22 14:15:51;;;;;;;;;;;;;;;;;;5141683;27;1099;-76
2022/06/22 14:18:35;;;;;;;;;;;;;;;;;;5123482;27;1265;-76
2022/06/22 14:21:00;;;;;;;;;;;;;;;;;;5108793;27;1305;-75
2022/06/22 14:23:25;;;;;;;;;;;;;;;;;;5104806;27;1948;-76
2022/06/22 14:26:00;;;;;;;;;;;;;;;;;;5104360;27;1167;-76
2022/06/22 14:28:46;;;;;;;;;;;;;;;;;;5130095;27;1163;-76
2022/06/22 14:31:13;;;;;;;;;;;;;;;;;;5127473;27;1288;-75
2022/06/22 14:33:41;;;;;;;;;;;;;;;;;;5122044;27;1300;-74
2022/06/22 14:36:19;;;;;;;;;;;;;;;;;;5150691;27;1143;-76
2022/06/22 14:39:00;;;;;;;;;;;;;;;;;;5129716;27;1142;-76
2022/06/22 14:41:39;;;;;;;;;;;;;;;;;;5111682;27;1194;-76
2022/06/22 14:44:19;;;;;;;;;;;;;;;;;;5118498;27;1890;-77
2022/06/22 14:46:49;;;;;;;;;;;;;;;;;;5129805;27;1229;-75
2022/06/22 14:49:20;;;;;;;;;;;;;;;;;;5146930;27;1150;-76
2022/06/22 14:51:45;;;;;;;;;;;;;;;;;;5117472;27;1199;-76
2022/06/22 14:54:29;;;;;;;;;;;;;;;;;;5148880;27;1213;-76
2022/06/22 14:57:13;;;;;;;;;;;;;;;;;;5130009;27;1163;-76
2022/06/22 14:59:50;;;;;;;;;;;;;;;;;;5141626;27;1130;-79
2022/06/22 15:02:21;;;;;;;;;;;;;;;;;;5110820;27;1906;-80
2022/06/22 15:04:59;;;;;;;;;;;;;;;;;;5110500;27;1309;-79
2022/06/22 15:07:31;;;;;;;;;;;;;;;;;;5114331;27;1284;-78
2022/06/22 15:10:04;;;;;;;;;;;;;;;;;;5128188;27;1214;-80
2022/06/22 15:15:28;;;;;;;;;;;;;;;;;;5149345;27;1015;-78
2022/06/22 15:18:00;;;;;;;;;;;;;;;;;;5128398;27;1226;-79
2022/06/22 15:20:30;;;;;;;;;;;;;;;;;;5129948;27;1224;-78
2022/06/22 15:23:00;;;;;;;;;;;;;;;;;;5126629;27;1948;-78
2022/06/22 15:25:33;;;;;;;;;;;;;;;;;;5150116;27;1150;-78
2022/06/22 15:28:02;;;;;;;;;;;;;;;;;;5129509;27;1272;-79
2022/06/22 15:30:32;;;;;;;;;;;;;;;;;;5122727;27;1178;-78
2022/06/22 15:33:03;;;;;;;;;;;;;;;;;;5108613;27;1415;-79
2022/06/22 15:35:47;;;;;;;;;;;;;;;;;;5131484;27;1143;-78
2022/06/22 15:38:15;;;;;;;;;;;;;;;;;;5109019;27;1273;-78
2022/06/22 15:40:59;;;;;;;;;;;;;;;;;;5109739;27;1320;-79
2022/06/22 15:43:30;;;;;;;;;;;;;;;;;;5129077;27;1938;-78
2022/06/22 15:46:08;;;;;;;;;;;;;;;;;;5104528;27;1143;-80
2022/06/22 15:48:49;;;;;;;;;;;;;;;;;;5110643;27;1334;-78
2022/06/22 15:51:17;;;;;;;;;;;;;;;;;;5115309;27;1324;-80
2022/06/22 15:54:04;;;;;;;;;;;;;;;;;;5127836;27;1214;-78
2022/06/22 15:56:50;;;;;;;;;;;;;;;;;;5148771;27;1123;-79
2022/06/22 15:59:18;;;;;;;;;;;;;;;;;;5127617;27;1159;-79
2022/06/22 16:01:55;;;;;;;;;;;;;;;;;;5128277;27;1274;-78
2022/06/22 16:04:43;;;;;;;;;;;;;;;;;;5147454;27;1910;-77
2022/06/22 16:07:16;;;;;;;;;;;;;;;;;;5127337;27;1194;-76
2022/06/22 16:09:50;;;;;;;;;;;;;;;;;;5127352;27;1252;-77
2022/06/22 16:15:19;;;;;;;;;;;;;;;;;;5144510;27;1054;-77
2022/06/22 16:17:53;;;;;;;;;;;;;;;;;;5139470;27;1206;-78
2022/06/22 16:20:22;;;;;;;;;;;;;;;;;;5107338;27;1174;-77
2022/06/22 16:23:01;;;;;;;;;;;;;;;;;;5102517;27;1961;-77
2022/06/22 16:25:28;;;;;;;;;;;;;;;;;;5108768;27;1346;-78
2022/06/22 16:28:00;;;;;;;;;;;;;;;;;;5106135;27;1281;-78
2022/06/22 16:30:50;;;;;;;;;;;;;;;;;;5116606;27;1309;-78
2022/06/22 16:33:22;;;;;;;;;;;;;;;;;;5147502;27;1190;-77
2022/06/22 16:35:47;;;;;;;;;;;;;;;;;;5126425;27;1214;-77
2022/06/22 16:38:23;;;;;;;;;;;;;;;;;;5126582;27;1218;-77
2022/06/22 16:40:54;;;;;;;;;;;;;;;;;;5127413;27;1161;-78
2022/06/22 16:43:19;;;;;;;;;;;;;;;;;;5130878;27;1952;-77
2022/06/22 16:46:00;;;;;;;;;;;;;;;;;;5126166;27;1262;-76
2022/06/22 16:48:30;;;;;;;;;;;;;;;;;;5148273;27;1126;-80
2022/06/22 16:51:03;;;;;;;;;;;;;;;;;;5126299;27;1176;-78
2022/06/22 16:53:51;;;;;;;;;;;;;;;;;;5147998;27;1218;-78
2022/06/22 16:56:27;;;;;;;;;;;;;;;;;;5080181;27;1293;-77
2022/06/22 16:59:01;;;;;;;;;;;;;;;;;;5127600;27;1287;-78
2022/06/22 17:01:37;;;;;;;;;;;;;;;;;;5145752;27;1166;-78
2022/06/22 17:04:16;;;;;;;;;;;;;;;;;;5129816;27;1914;-78
2022/06/22 17:06:51;;;;;;;;;;;;;;;;;;5127524;27;1216;-77
2022/06/22 17:09:35;;;;;;;;;;;;;;;;;;5110966;27;1209;-78
2022/06/22 17:12:03;;;;;;;;;;;;;;;;;;5124706;27;1158;-78
2022/06/22 17:14:32;;;;;;;;;;;;;;;;;;5108023;27;1205;-78
2022/06/22 17:17:16;;;;;;;;;;;;;;;;;;5103479;27;1336;-78
2022/06/22 17:19:54;;;;;;;;;;;;;;;;;;5106640;27;1238;-78
2022/06/22 17:22:32;;;;;;;;;;;;;;;;;;5122959;27;1975;-77
2022/06/22 17:24:58;;;;;;;;;;;;;;;;;;5104064;27;1240;-78
2022/06/22 17:27:26;;;;;;;;;;;;;;;;;;5107328;27;1317;-78
2022/06/22 17:29:51;;;;;;;;;;;;;;;;;;5121426;27;1214;-77
2022/06/22 17:32:24;;;;;;;;;;;;;;;;;;5106375;27;1123;-77
2022/06/22 17:34:53;;;;;;;;;;;;;;;;;;5114276;27;1238;-77
2022/06/22 17:37:47;;;;;;;;;;;;;;;;;;5125773;27;1439;-77
2022/06/22 17:40:29;;;;;;;;;;;;;;;;;;5103598;27;1283;-77
2022/06/22 17:43:01;;;;;;;;;;;;;;;;;;5126301;27;1971;-76
2022/06/22 17:45:45;;;;;;;;;;;;;;;;;;5127285;27;1125;-77
2022/06/22 17:48:20;;;;;;;;;;;;;;;;;;5125943;27;1243;-77
2022/06/22 17:50:59;;;;;;;;;;;;;;;;;;5145222;27;1091;-77
2022/06/22 17:53:38;;;;;;;;;;;;;;;;;;5126789;27;1260;-77
2022/06/22 17:56:21;;;;;;;;;;;;;;;;;;5114006;27;1266;-78
2022/06/22 17:59:05;;;;;;;;;;;;;;;;;;5120565;27;1104;-76
2022/06/22 18:01:43;;;;;;;;;;;;;;;;;;5145110;27;1302;-77
2022/06/22 18:04:17;;;;;;;;;;;;;;;;;;5126087;27;1980;-76
2022/06/22 18:06:44;;;;;;;;;;;;;;;;;;5126394;27;1226;-76
2022/06/22 18:09:12;;;;;;;;;;;;;;;;;;5123090;27;1300;-77
2022/06/22 18:11:39;;;;;;;;;;;;;;;;;;5118779;27;1282;-77
2022/06/22 18:14:18;;;;;;;;;;;;;;;;;;5123036;27;1261;-77
2022/06/22 18:16:46;;;;;;;;;;;;;;;;;;5144725;27;1221;-77
2022/06/22 18:19:24;;;;;;;;;;;;;;;;;;5126318;27;1230;-77
2022/06/22 18:21:56;;;;;;;;;;;;;;;;;;5124703;27;1249;-77
2022/06/22 18:24:24;;;;;;;;;;;;;;;;;;5126686;27;1893;-77
2022/06/22 18:26:52;;;;;;;;;;;;;;;;;;5123462;27;1083;-77